Time;durP1;ratioP1;P1;durP2;ratioP2;P2;SDS_P1;SDS_P2;PMS_P1;PMS_P2;Temp;Humidity;BMP_temperature;BMP_pressure;BME280_temperature;BME280_humidity;BME280_pressure;Samples;Min_cycle;Max_cycle;Signal;HPM_P1;HPM_P2
2022/08/22 00:02:28;;;;;;;35.15;5.67;;;;;;;23.19;96.50;99290.86;1657935;85;21035;-60
2022/08/22 00:05:26;;;;;;;34.18;5.75;;;;;;;23.18;96.96;99291.84;1665570;83;21593;-61
2022/08/22 00:08:20;;;;;;;26.85;6.70;;;;;;;23.18;96.85;99291.01;1654963;85;21671;-60
2022/08/22 00:11:25;;;;;;;34.73;6.25;;;;;;;23.15;96.89;99289.49;1660810;85;21568;-60
2022/08/22 00:14:12;;;;;;;35.10;6.17;;;;;;;23.15;97.04;99292.17;1658331;84;21427;-60
2022/08/22 00:17:12;;;;;;;35.63;7.03;;;;;;;23.10;97.07;99290.45;1661259;84;21498;-60
2022/08/22 00:19:56;;;;;;;23.70;5.08;;;;;;;23.06;97.49;99291.25;1652258;85;21506;-61
2022/08/22 00:23:10;;;;;;;31.87;5.80;;;;;;;23.02;97.87;99289.84;1657137;85;22168;-60
2022/08/22 00:25:45;;;;;;;30.65;5.70;;;;;;;23.08;97.64;99293.78;1662120;84;21503;-60
2022/08/22 00:28:27;;;;;;;25.97;6.33;;;;;;;23.05;97.54;99290.89;1622189;87;21462;-60
2022/08/22 00:31:08;;;;;;;27.50;5.62;;;;;;;23.05;97.96;99304.80;1626539;87;21485;-61
2022/08/22 00:34:30;;;;;;;41.85;6.60;;;;;;;23.01;98.22;99304.74;1595928;88;21462;-61
2022/08/22 00:37:22;;;;;;;29.40;5.65;;;;;;;22.96;98.30;99299.83;1656494;85;21910;-60
2022/08/22 00:39:56;;;;;;;41.92;6.42;;;;;;;22.86;98.80;99301.25;1660936;85;21493;-60
2022/08/22 00:42:31;;;;;;;32.67;6.00;;;;;;;22.86;98.80;99301.25;1666934;83;21537;-60
2022/08/22 00:45:18;;;;;;;38.88;5.97;;;;;;;22.85;99.21;99309.44;1659914;85;21551;-60
2022/08/22 00:48:09;;;;;;;39.38;6.58;;;;;;;22.89;98.65;99302.80;1660203;84;21616;-60
2022/08/22 00:50:53;;;;;;;39.85;5.78;;;;;;;22.86;98.71;99309.80;1650573;85;21597;-60
2022/08/22 00:54:00;;;;;;;24.00;4.92;;;;;;;22.79;99.10;99314.08;1658959;84;21608;-60
2022/08/22 00:56:36;;;;;;;;;;;;;;;22.75;99.41;99305.48;1665085;85;21580;-60
2022/08/22 00:59:42;;;;;;;22.35;5.78;;;;;;;22.65;99.73;99303.39;1655532;85;20325;-60
2022/08/22 01:02:42;;;;;;;37.90;5.83;;;;;;;22.65;99.73;99303.39;1648140;83;21601;-60
2022/08/22 01:05:43;;;;;;;32.05;5.62;;;;;;;22.61;99.86;99308.20;1656819;85;21800;-60
2022/08/22 01:08:43;;;;;;;27.67;5.55;;;;;;;22.67;99.19;99304.91;1658594;85;21042;-60
2022/08/22 01:11:37;;;;;;;34.58;5.75;;;;;;;22.67;99.22;99313.45;1652320;85;21535;-60
2022/08/22 01:14:29;;;;;;;36.20;6.00;;;;;;;22.53;99.93;99308.96;1656252;85;21526;-66
2022/08/22 01:17:39;;;;;;;31.37;6.28;;;;;;;22.53;99.93;99308.96;1653753;85;21078;-61
2022/08/22 01:20:45;;;;;;;28.55;6.47;;;;;;;22.56;99.88;99317.18;1663651;85;21793;-61
2022/08/22 01:23:37;;;;;;;25.12;5.45;;;;;;;22.52;100.00;99319.31;1658525;85;20990;-60
2022/08/22 01:26:43;;;;;;;37.38;5.37;;;;;;;22.50;99.72;99321.30;1656525;85;21485;-61
2022/08/22 01:29:56;;;;;;;30.20;6.47;;;;;;;22.49;99.54;99314.28;1657015;85;21483;-59
2022/08/22 01:32:43;;;;;;;29.30;6.25;;;;;;;22.49;99.63;99310.27;1664088;83;21551;-59
2022/08/22 01:35:30;;;;;;;;;;;;;;;22.49;99.24;99316.09;1660282;85;21873;-59
2022/08/22 01:38:20;;;;;;;35.17;5.87;;;;;;;22.44;100.00;99315.72;1663118;85;20455;-59
2022/08/22 01:41:02;;;;;;;28.47;5.33;;;;;;;22.42;99.56;99313.19;1669337;83;21462;-59
2022/08/22 01:43:39;;;;;;;35.03;5.78;;;;;;;22.31;99.89;99314.73;1659117;85;22967;-59
2022/08/22 01:46:33;;;;;;;29.37;5.12;;;;;;;22.31;99.89;99314.73;1659043;85;21517;-60
2022/08/22 01:49:23;;;;;;;27.37;5.28;;;;;;;22.26;100.00;99323.19;1660965;85;21451;-59
2022/08/22 01:51:57;;;;;;;31.05;5.30;;;;;;;22.21;100.00;99324.13;1663345;83;21599;-59
2022/08/22 01:54:47;;;;;;;27.42;5.25;;;;;;;22.20;100.00;99316.23;1664002;85;21561;-59
2022/08/22 01:57:14;;;;;;;33.05;5.37;;;;;;;22.10;100.00;99315.78;1655860;85;21022;-59
2022/08/22 01:59:51;;;;;;;26.07;4.70;;;;;;;22.10;100.00;99315.78;1662960;83;21597;-60
2022/08/22 02:02:45;;;;;;;;;;;;;;;22.06;100.00;99317.57;1670450;83;21716;-59
2022/08/22 02:05:30;;;;;;;28.95;5.03;;;;;;;21.99;100.00;99317.30;1657652;83;20496;-59
2022/08/22 02:08:38;;;;;;;25.12;5.40;;;;;;;21.99;100.00;99317.30;1667401;85;21550;-59
2022/08/22 02:11:09;;;;;;;25.08;5.37;;;;;;;21.96;100.00;99324.27;1659025;83;21498;-59
2022/08/22 02:14:00;;;;;;;29.77;4.97;;;;;;;21.93;100.00;99319.23;1662180;85;21524;-59
2022/08/22 02:16:39;;;;;;;29.48;5.72;;;;;;;21.93;100.00;99322.75;1636628;85;21849;-59
2022/08/22 02:19:23;;;;;;;;;;;;;;;21.91;100.00;99319.38;1665904;83;21499;-59
2022/08/22 02:22:26;;;;;;;27.20;5.22;;;;;;;21.96;100.00;99325.61;1697097;83;20422;-59
2022/08/22 02:25:22;;;;;;;33.05;5.22;;;;;;;21.93;100.00;99331.28;1699429;83;21521;-60
2022/08/22 02:28:06;;;;;;;23.65;4.50;;;;;;;21.92;100.00;99332.25;1701495;83;22661;-60
2022/08/22 02:30:52;;;;;;;26.12;5.83;;;;;;;21.93;100.00;99339.30;1689445;83;21867;-60
2022/08/22 02:33:38;;;;;;;33.95;5.17;;;;;;;21.95;100.00;99338.16;1696046;83;21455;-59
2022/08/22 02:36:34;;;;;;;26.42;5.35;;;;;;;21.95;100.00;99330.63;1696471;83;21506;-60
2022/08/22 02:39:27;;;;;;;21.60;5.12;;;;;;;21.91;100.00;99336.77;1695059;81;21578;-59
2022/08/22 02:42:14;;;;;;;29.40;5.53;;;;;;;21.91;100.00;99332.75;1694886;83;21675;-60
2022/08/22 02:44:52;;;;;;;25.12;4.60;;;;;;;21.86;100.00;99344.38;1697115;82;21566;-60
2022/08/22 02:47:34;;;;;;;;;;;;;;;21.80;100.00;99345.48;1700871;82;21431;-59
2022/08/22 02:50:12;;;;;;;27.50;5.28;;;;;;;21.70;100.00;99346.34;1688877;82;20454;-60
2022/08/22 02:53:00;;;;;;;23.50;5.03;;;;;;;21.69;100.00;99349.16;1704546;82;21575;-60
2022/08/22 02:56:09;;;;;;;23.83;5.00;;;;;;;21.61;100.00;99347.70;1705411;82;21559;-60
2022/08/22 02:58:55;;;;;;;27.67;5.30;;;;;;;21.51;100.00;99355.72;1695140;82;21821;-59
2022/08/22 03:01:30;;;;;;;19.92;5.17;;;;;;;21.51;100.00;99355.72;1689001;82;21607;-61
2022/08/22 03:04:21;;;;;;;15.10;4.28;;;;;;;21.53;100.00;99359.09;1702837;82;21550;-59
2022/08/22 03:07:15;;;;;;;26.15;4.47;;;;;;;21.56;100.00;99361.48;1690951;82;21591;-60
2022/08/22 03:10:09;;;;;;;32.15;5.10;;;;;;;21.50;100.00;99359.39;1689751;82;21000;-60
2022/08/22 03:13:03;;;;;;;26.42;4.58;;;;;;;21.52;100.00;99360.09;1693770;82;21798;-61
2022/08/22 03:16:20;;;;;;;31.75;4.97;;;;;;;21.54;100.00;99358.95;1689788;82;21445;-60
2022/08/22 03:19:07;;;;;;;19.73;5.00;;;;;;;21.55;100.00;99364.66;1688715;82;21010;-60
2022/08/22 03:21:54;;;;;;;25.10;5.22;;;;;;;21.51;100.00;99363.73;1685340;82;21598;-59
2022/08/22 03:24:35;;;;;;;26.20;4.63;;;;;;;21.41;100.00;99360.21;1709587;82;21435;-59
2022/08/22 03:27:16;;;;;;;20.43;4.87;;;;;;;21.41;100.00;99360.21;1713828;82;21787;-59
2022/08/22 03:29:56;;;;;;;31.60;5.60;;;;;;;21.42;100.00;99360.08;1689589;82;21582;-60
2022/08/22 03:32:26;;;;;;;27.93;5.08;;;;;;;21.36;100.00;99365.50;1702223;82;21573;-60
2022/08/22 03:35:08;;;;;;;26.80;4.58;;;;;;;21.37;100.00;99366.34;1701141;82;21546;-60
2022/08/22 03:37:39;;;;;;;19.77;4.87;;;;;;;21.35;100.00;99365.63;1696142;82;21086;-61
2022/08/22 03:40:44;;;;;;;26.45;4.87;;;;;;;21.41;100.00;99369.57;1690734;82;21787;-61
2022/08/22 03:43:54;;;;;;;22.17;4.72;;;;;;;21.49;100.00;99379.09;1696211;82;21420;-59
2022/08/22 03:46:35;;;;;;;27.55;5.20;;;;;;;21.49;100.00;99379.09;1697613;82;21449;-60
2022/08/22 03:49:33;;;;;;;22.15;4.85;;;;;;;21.44;100.00;99384.01;1700651;82;21503;-58
2022/08/22 03:52:28;;;;;;;18.62;4.65;;;;;;;21.44;100.00;99384.01;1685170;82;21451;-59
2022/08/22 03:55:27;;;;;;;18.37;4.60;;;;;;;21.46;100.00;99396.27;1707746;82;21872;-59
2022/08/22 03:58:36;;;;;;;21.20;5.30;;;;;;;21.53;100.00;99392.05;1651946;85;21628;-59
2022/08/22 04:01:42;;;;;;;25.92;5.58;;;;;;;21.59;100.00;99386.63;1643927;85;21578;-59
2022/08/22 04:04:30;;;;;;;23.25;4.70;;;;;;;21.60;99.74;99384.28;1680895;82;21586;-60
2022/08/22 04:07:25;;;;;;;16.70;4.47;;;;;;;21.63;99.65;99390.70;1702838;82;21503;-60
2022/08/22 04:10:15;;;;;;;17.35;4.00;;;;;;;21.71;99.51;99390.81;1647671;82;21801;-60
2022/08/22 04:12:51;;;;;;;24.70;4.87;;;;;;;21.81;98.48;99392.13;1699625;82;21581;-60
2022/08/22 04:15:55;;;;;;;22.37;4.22;;;;;;;21.86;97.37;99391.22;1691954;82;21404;-60
2022/08/22 04:18:48;;;;;;;23.35;4.40;;;;;;;21.97;96.92;99392.89;1708321;82;21453;-59
2022/08/22 04:21:33;;;;;;;26.33;5.17;;;;;;;22.06;96.43;99395.20;1696356;82;21431;-60
2022/08/22 04:24:34;;;;;;;21.95;4.25;;;;;;;22.10;95.78;99390.73;1670374;82;21824;-60
2022/08/22 04:27:21;;;;;;;37.13;4.95;;;;;;;22.21;95.36;99395.55;1698874;82;20959;-59
2022/08/22 04:30:04;;;;;;;;;;;;;;;22.24;93.58;99386.73;1695819;82;21464;-60
2022/08/22 04:32:46;;;;;;;17.95;4.35;;;;;;;22.37;93.55;99396.31;1693277;82;20509;-60
2022/08/22 04:35:27;;;;;;;17.35;4.42;;;;;;;22.37;93.66;99394.47;1697241;82;21607;-60
2022/08/22 04:38:14;;;;;;;24.85;4.75;;;;;;;22.40;92.74;99383.47;1696686;82;21553;-60
2022/08/22 04:40:57;;;;;;;;;;;;;;;22.45;93.16;99387.03;1703843;82;21061;-60
2022/08/22 04:43:32;;;;;;;19.40;5.00;;;;;;;22.59;92.33;99385.72;1687897;82;20652;-60
2022/08/22 04:46:25;;;;;;;18.62;4.47;;;;;;;22.59;92.33;99385.72;1704795;82;21562;-60
2022/08/22 04:49:00;;;;;;;18.35;4.50;;;;;;;22.65;91.23;99389.13;1707431;82;21429;-60
2022/08/22 04:51:40;;;;;;;21.45;4.83;;;;;;;22.69;90.41;99391.85;1687939;82;21884;-60
2022/08/22 04:54:29;;;;;;;18.67;3.98;;;;;;;22.84;89.06;99380.97;1687080;82;21076;-60
2022/08/22 04:57:28;;;;;;;14.75;4.00;;;;;;;22.84;89.06;99380.97;1695391;82;21500;-60
2022/08/22 05:00:58;;;;;;;21.05;4.28;;;;;;;22.80;89.46;99387.62;1778628;78;22821;-59
2022/08/22 05:03:27;;;;;;;13.70;4.25;;;;;;;22.80;89.46;99387.62;1734690;80;21597;-60
2022/08/22 05:05:54;;;;;;;19.20;4.28;;;;;;;22.89;88.42;99382.70;1676532;83;21852;-60
2022/08/22 05:08:24;;;;;;;12.65;3.72;;;;;;;22.97;87.87;99385.97;1706778;83;21418;-61
2022/08/22 05:10:53;;;;;;;23.35;4.15;;;;;;;23.03;87.00;99386.72;1708838;81;20942;-61
2022/08/22 05:13:43;;;;;;;23.20;4.15;;;;;;;23.06;84.64;99384.25;1706877;83;21457;-60
2022/08/22 05:16:16;;;;;;;25.97;4.35;;;;;;;23.10;84.36;99391.00;1700299;83;21498;-61
2022/08/22 05:18:59;;;;;;;18.15;3.55;;;;;;;23.21;83.21;99389.94;1706457;83;21632;-61
2022/08/22 05:21:31;;;;;;;28.05;3.80;;;;;;;23.28;82.83;99395.00;1706541;82;21072;-60
2022/08/22 05:24:06;;;;;;;18.50;3.77;;;;;;;23.37;81.28;99393.25;1709811;83;21507;-60
2022/08/22 05:26:41;;;;;;;20.43;4.45;;;;;;;23.43;81.14;99398.86;1712473;83;21504;-60
2022/08/22 05:29:09;;;;;;;19.87;4.55;;;;;;;23.43;81.14;99398.86;1703914;83;21507;-60
2022/08/22 05:31:49;;;;;;;21.35;4.15;;;;;;;23.42;80.43;99395.81;1707254;83;21525;-61
2022/08/22 05:34:20;;;;;;;15.53;3.40;;;;;;;23.46;80.07;99397.70;1700418;81;21620;-60
2022/08/22 05:36:58;;;;;;;15.23;3.22;;;;;;;23.46;80.07;99397.70;1702231;83;21549;-60
2022/08/22 05:39:25;;;;;;;;;;;;;;;23.44;80.16;99406.40;1709206;83;21499;-60
2022/08/22 05:41:53;;;;;;;;;;;;;;;23.42;80.11;99400.34;1696374;83;20441;-60
2022/08/22 05:44:30;;;;;;;15.48;3.47;;;;;;;23.36;80.85;99401.80;1708699;82;22120;-60
2022/08/22 05:47:05;;;;;;;18.20;4.65;;;;;;;23.36;80.85;99401.80;1708147;82;21532;-60
2022/08/22 05:49:37;;;;;;;20.08;4.12;;;;;;;23.39;80.27;99399.30;1698860;82;21590;-61
2022/08/22 05:52:37;;;;;;;25.37;4.60;;;;;;;23.45;80.39;99402.70;1695263;82;21506;-60
2022/08/22 05:55:40;;;;;;;17.23;4.03;;;;;;;23.66;80.14;99404.58;1698188;82;21065;-59
2022/08/22 05:58:45;;;;;;;20.00;3.95;;;;;;;23.66;80.14;99404.58;1704967;82;22213;-61
2022/08/22 06:01:29;;;;;;;26.77;4.33;;;;;;;23.87;79.37;99397.55;1703876;82;21510;-60
2022/08/22 06:04:05;;;;;;;19.37;3.85;;;;;;;24.00;79.02;99396.30;1707222;82;21682;-59
2022/08/22 06:06:40;;;;;;;20.40;4.03;;;;;;;24.13;77.84;99398.53;1709411;82;21545;-63
2022/08/22 06:09:22;;;;;;;18.42;4.45;;;;;;;24.18;76.65;99394.38;1687581;82;21539;-63
2022/08/22 06:12:20;;;;;;;24.15;4.17;;;;;;;24.30;75.38;99388.24;1675903;82;22035;-61
2022/08/22 06:15:13;;;;;;;20.10;3.75;;;;;;;24.51;73.58;99389.17;1705412;82;21502;-63
2022/08/22 06:17:50;;;;;;;14.25;3.77;;;;;;;24.51;73.58;99389.17;1708277;82;21568;-63
2022/08/22 06:20:28;;;;;;;18.70;3.95;;;;;;;24.61;73.02;99385.88;1701659;82;21545;-63
2022/08/22 06:22:56;;;;;;;;;;;;;;;24.75;73.28;99393.84;1702949;82;21583;-63
2022/08/22 06:25:35;;;;;;;31.12;4.03;;;;;;;24.82;71.47;99394.84;1708982;82;22085;-64
2022/08/22 06:28:08;;;;;;;24.52;4.03;;;;;;;24.82;71.59;99389.47;1699116;82;21605;-63
2022/08/22 06:30:37;;;;;;;24.47;3.85;;;;;;;24.81;70.24;99391.83;1695047;82;21620;-62
2022/08/22 06:33:09;;;;;;;22.58;4.40;;;;;;;24.84;68.20;99386.11;1707553;82;21494;-63
2022/08/22 06:38:33;;;;;;;19.92;3.90;;;;;;;24.93;68.32;99384.80;1704571;82;21527;-62
2022/08/22 06:41:02;;;;;;;24.57;4.53;;;;;;;24.97;69.15;99382.12;1702462;82;21518;-61
2022/08/22 06:43:34;;;;;;;15.35;3.72;;;;;;;25.06;69.20;99378.44;1704560;83;21514;-61
2022/08/22 06:46:01;;;;;;;16.82;3.35;;;;;;;25.15;68.04;99372.58;1694279;82;21519;-58
2022/08/22 06:48:28;;;;;;;26.45;4.10;;;;;;;25.29;65.70;99372.45;1703447;82;21513;-58
2022/08/22 06:50:57;;;;;;;25.90;3.92;;;;;;;25.34;64.75;99369.59;1704138;82;21821;-59
2022/08/22 06:53:29;;;;;;;18.20;3.35;;;;;;;25.44;62.17;99375.64;1699548;83;21645;-59
2022/08/22 06:55:58;;;;;;;18.80;4.08;;;;;;;25.55;61.90;99369.08;1706289;82;21531;-59
2022/08/22 06:58:28;;;;;;;20.25;3.72;;;;;;;25.61;61.15;99361.67;1700738;82;21657;-60
2022/08/22 07:00:57;;;;;;;24.00;4.33;;;;;;;25.75;62.52;99363.34;1699127;82;21631;-60
2022/08/22 07:03:32;;;;;;;27.93;4.15;;;;;;;25.86;61.79;99363.50;1700198;83;21485;-58
2022/08/22 07:05:59;;;;;;;19.10;3.85;;;;;;;25.93;61.92;99366.71;1696182;82;21584;-59
2022/08/22 07:08:29;;;;;;;13.50;3.30;;;;;;;26.01;62.55;99369.89;1697892;82;21539;-60
2022/08/22 07:11:13;;;;;;;19.02;3.67;;;;;;;26.05;62.35;99367.69;1691875;82;21530;-60
2022/08/22 07:13:56;;;;;;;23.12;3.35;;;;;;;26.15;61.12;99367.01;1687390;82;21431;-62
2022/08/22 07:16:42;;;;;;;20.90;3.30;;;;;;;26.25;59.88;99360.07;1693918;82;21939;-58
2022/08/22 07:19:22;;;;;;;15.18;3.47;;;;;;;26.37;59.61;99356.83;1732234;81;21517;-58
2022/08/22 07:21:48;;;;;;;16.60;3.58;;;;;;;26.49;59.78;99357.27;1736368;82;21475;-58
2022/08/22 07:24:21;;;;;;;23.32;3.92;;;;;;;26.66;58.71;99350.49;1731501;81;21534;-60
2022/08/22 07:27:37;;;;;;;22.65;3.80;;;;;;;26.75;57.84;99352.97;1735739;80;21506;-59
2022/08/22 07:30:11;;;;;;;23.40;3.80;;;;;;;26.86;56.24;99346.82;1728196;80;21642;-59
2022/08/22 07:33:00;;;;;;;18.00;3.67;;;;;;;26.96;53.92;99346.10;1697610;82;21503;-60
2022/08/22 07:35:37;;;;;;;28.57;3.83;;;;;;;27.07;50.80;99350.22;1737403;80;21574;-59
2022/08/22 07:38:41;;;;;;;24.05;3.20;;;;;;;27.16;51.77;99345.95;1736557;80;21433;-59
2022/08/22 07:41:19;;;;;;;28.12;3.45;;;;;;;27.33;51.38;99343.14;1738552;80;21421;-59
2022/08/22 07:44:01;;;;;;;23.32;4.00;;;;;;;27.52;50.26;99341.80;1694491;83;21867;-60
2022/08/22 07:46:41;;;;;;;17.77;3.47;;;;;;;27.63;48.87;99344.57;1686503;83;21706;-59
2022/08/22 07:49:25;;;;;;;18.98;3.45;;;;;;;27.72;47.29;99342.12;1691358;83;20955;-59
2022/08/22 07:51:59;;;;;;;20.65;3.10;;;;;;;27.80;47.16;99342.03;1735558;80;21553;-58
2022/08/22 07:54:53;;;;;;;25.65;3.35;;;;;;;27.93;46.26;99349.05;1686800;82;21672;-58
2022/08/22 07:57:24;;;;;;;19.75;3.42;;;;;;;28.06;45.83;99346.19;1689576;82;21552;-60
2022/08/22 07:59:54;;;;;;;22.40;3.75;;;;;;;28.14;45.08;99346.09;1689726;82;21427;-60
2022/08/22 08:02:21;;;;;;;21.80;3.70;;;;;;;28.18;45.00;99339.80;1653633;83;21045;-60
2022/08/22 08:04:49;;;;;;;24.20;4.15;;;;;;;28.26;46.50;99337.02;1729902;80;21534;-61
2022/08/22 08:07:17;;;;;;;21.23;4.17;;;;;;;28.39;46.44;99337.68;1701932;82;21557;-59
2022/08/22 08:09:55;;;;;;;20.20;4.47;;;;;;;28.47;46.15;99344.36;1748764;80;21508;-60
2022/08/22 08:12:46;;;;;;;20.67;4.20;;;;;;;28.52;45.07;99343.31;1724144;80;21430;-59
2022/08/22 08:15:17;;;;;;;16.07;4.08;;;;;;;28.59;45.91;99333.39;1716849;81;22176;-60
2022/08/22 08:17:46;;;;;;;20.57;3.92;;;;;;;28.64;47.20;99330.13;1739978;80;21050;-59
2022/08/22 08:20:16;;;;;;;25.20;3.75;;;;;;;28.63;45.58;99336.06;1734621;80;21458;-59
2022/08/22 08:22:43;;;;;;;22.87;3.37;;;;;;;28.71;46.26;99330.53;1676246;83;21700;-60
2022/08/22 08:25:17;;;;;;;23.73;3.70;;;;;;;28.78;46.64;99338.70;1701850;83;28768;-60
2022/08/22 08:30:48;;;;;;;23.90;4.78;;;;;;;29.00;47.26;99330.09;1728053;80;21084;-60
2022/08/22 08:33:18;;;;;;;15.15;3.40;;;;;;;29.07;47.35;99328.30;1737895;80;22058;-60
2022/08/22 08:35:53;;;;;;;26.82;3.72;;;;;;;29.12;45.89;99326.35;1738617;80;21837;-60
2022/08/22 08:38:25;;;;;;;23.47;3.90;;;;;;;29.16;46.78;99322.28;1748192;79;21478;-59
2022/08/22 08:41:33;;;;;;;27.22;3.80;;;;;;;29.23;46.74;99319.09;1737900;80;21452;-59
2022/08/22 08:44:22;;;;;;;31.23;4.10;;;;;;;29.32;46.55;99329.29;1708292;80;21639;-59
2022/08/22 08:47:22;;;;;;;31.68;4.10;;;;;;;29.36;46.07;99321.62;1732211;80;21503;-59
2022/08/22 08:50:32;;;;;;;22.35;4.28;;;;;;;29.42;44.24;99318.12;1704579;83;21520;-59
2022/08/22 08:53:10;;;;;;;13.43;3.40;;;;;;;29.53;45.54;99329.77;1729539;80;21504;-61
2022/08/22 08:55:50;;;;;;;28.62;4.28;;;;;;;29.63;44.55;99321.30;1703716;82;21037;-60
2022/08/22 08:58:38;;;;;;;22.95;3.92;;;;;;;29.63;44.79;99319.94;1692914;82;21558;-61
2022/08/22 09:01:24;;;;;;;25.62;3.62;;;;;;;29.77;45.18;99327.70;1728790;80;21440;-60
2022/08/22 09:04:21;;;;;;;22.58;3.83;;;;;;;29.90;43.79;99322.36;1733305;81;22048;-60
2022/08/22 09:07:13;;;;;;;27.32;3.92;;;;;;;29.99;42.72;99324.38;1694311;82;28888;-60
2022/08/22 09:10:10;;;;;;;24.37;3.75;;;;;;;30.14;43.41;99322.41;1727533;81;21799;-62
2022/08/22 09:13:19;;;;;;;21.77;3.55;;;;;;;30.26;42.51;99317.23;1692778;84;21698;-61
2022/08/22 09:16:12;;;;;;;20.60;3.62;;;;;;;30.34;42.50;99318.44;1689882;82;21542;-59
2022/08/22 09:19:32;;;;;;;25.77;4.40;;;;;;;30.24;43.87;99316.08;1620306;86;21803;-59
2022/08/22 09:22:24;;;;;;;23.10;3.95;;;;;;;30.35;43.50;99303.03;1643601;85;21546;-60
2022/08/22 09:25:28;;;;;;;24.35;3.30;;;;;;;30.39;44.66;99311.08;1650168;85;21613;-61
2022/08/22 09:28:03;;;;;;;23.40;4.42;;;;;;;30.53;44.44;99310.06;1602764;85;21573;-59
2022/08/22 09:30:52;;;;;;;19.17;3.65;;;;;;;30.63;43.56;99306.98;1647423;84;21536;-62
2022/08/22 09:33:21;;;;;;;26.30;3.98;;;;;;;30.69;42.62;99308.05;1655729;84;21609;-59
2022/08/22 09:36:07;;;;;;;23.22;4.37;;;;;;;30.66;43.82;99306.03;1651015;85;21417;-60
2022/08/22 09:38:48;;;;;;;28.02;3.70;;;;;;;30.74;40.84;99305.54;1647643;84;21548;-61
2022/08/22 09:41:31;;;;;;;34.95;4.40;;;;;;;30.83;41.30;99301.06;1645123;85;20982;-60
2022/08/22 09:44:33;;;;;;;22.52;3.80;;;;;;;30.96;39.05;99300.29;1649309;84;21618;-61
2022/08/22 09:47:14;;;;;;;27.52;4.22;;;;;;;31.09;39.60;99302.19;1647193;84;21797;-60
2022/08/22 09:50:11;;;;;;;33.00;4.42;;;;;;;31.21;38.53;99299.69;1648099;86;21565;-61
2022/08/22 09:53:30;;;;;;;31.65;4.83;;;;;;;31.24;38.50;99300.11;1617121;86;21514;-60
2022/08/22 09:56:13;;;;;;;32.70;4.33;;;;;;;31.35;38.32;99297.83;1622189;86;21579;-60
2022/08/22 09:59:25;;;;;;;32.38;4.92;;;;;;;31.54;38.85;99297.53;1589848;87;22068;-60
2022/08/22 10:02:07;;;;;;;27.73;3.85;;;;;;;31.57;38.11;99287.58;1593985;87;21889;-62
2022/08/22 10:04:43;;;;;;;36.58;4.58;;;;;;;31.57;37.48;99306.09;1592040;88;21550;-60
2022/08/22 10:07:39;;;;;;;24.63;4.65;;;;;;;31.60;37.40;99301.58;1588657;88;21564;-60
2022/08/22 10:10:29;;;;;;;33.13;4.85;;;;;;;31.64;37.80;99306.08;1556303;90;21586;-59
2022/08/22 10:13:13;;;;;;;38.38;4.65;;;;;;;31.67;38.02;99309.73;1587599;87;21097;-60
2022/08/22 10:16:03;;;;;;;44.25;5.90;;;;;;;31.73;37.14;99305.34;1613321;86;21985;-61
2022/08/22 10:18:39;;;;;;;35.80;4.87;;;;;;;31.73;36.66;99309.42;1607360;87;21560;-60
2022/08/22 10:21:44;;;;;;;45.17;5.10;;;;;;;31.79;36.55;99309.39;1579148;88;21543;-59
2022/08/22 10:24:47;;;;;;;45.35;4.80;;;;;;;31.86;35.90;99304.48;1585189;88;21033;-59
2022/08/22 10:27:21;;;;;;;49.77;5.65;;;;;;;31.97;35.80;99310.09;1569420;89;21227;-61
2022/08/22 10:30:02;;;;;;;44.77;5.75;;;;;;;32.04;34.87;99316.89;1576136;88;21595;-61
2022/08/22 10:32:40;;;;;;;34.05;4.70;;;;;;;32.03;35.25;99312.52;1588891;88;21580;-60
2022/08/22 10:35:31;;;;;;;40.38;5.00;;;;;;;32.06;35.57;99305.31;1571975;88;21586;-60
2022/08/22 10:38:13;;;;;;;47.48;6.28;;;;;;;32.11;35.76;99313.63;1591493;87;21509;-60
2022/08/22 10:40:50;;;;;;;42.95;5.75;;;;;;;32.21;35.18;99310.45;1575113;88;21543;-60
2022/08/22 10:43:23;;;;;;;49.98;6.05;;;;;;;32.29;35.16;99307.52;1576298;90;21791;-61
2022/08/22 10:45:54;;;;;;;56.42;6.90;;;;;;;32.40;34.49;99310.09;1590270;89;21562;-59
2022/08/22 10:48:35;;;;;;;45.60;5.95;;;;;;;32.49;33.65;99312.86;1587563;88;21483;-60
2022/08/22 10:51:26;;;;;;;53.83;6.00;;;;;;;32.56;34.09;99310.94;1585433;89;21080;-59
2022/08/22 10:54:09;;;;;;;58.52;7.20;;;;;;;32.59;33.60;99309.19;1562242;88;21471;-59
2022/08/22 11:00:18;;;;;;;57.75;8.30;;;;;;;32.77;33.62;99315.78;1608368;87;21430;-61
2022/08/22 11:03:17;;;;;;;54.10;7.00;;;;;;;32.76;33.05;99319.04;1629480;87;21572;-59
2022/08/22 11:05:45;;;;;;;65.75;7.65;;;;;;;32.77;33.23;99314.42;1582154;86;21688;-60
2022/08/22 11:08:27;;;;;;;66.40;8.40;;;;;;;32.88;32.85;99312.37;1621896;86;21514;-60
2022/08/22 11:11:11;;;;;;;71.77;8.53;;;;;;;32.92;33.00;99304.59;1624787;86;21838;-59
2022/08/22 11:14:08;;;;;;;61.50;8.13;;;;;;;33.00;32.55;99313.02;1617549;87;21112;-60
2022/08/22 11:17:04;;;;;;;59.13;6.33;;;;;;;33.09;32.58;99307.09;1624292;86;21494;-60
2022/08/22 11:19:46;;;;;;;62.95;6.97;;;;;;;33.16;32.43;99306.55;1618769;87;21454;-60
2022/08/22 11:22:39;;;;;;;61.58;7.95;;;;;;;33.21;32.27;99303.68;1622429;87;21535;-60
2022/08/22 11:25:20;;;;;;;66.40;9.35;;;;;;;33.20;32.45;99299.30;1626208;86;21929;-59
2022/08/22 11:28:11;;;;;;;72.58;9.53;;;;;;;33.31;31.85;99302.14;1620571;87;21497;-59
2022/08/22 11:31:21;;;;;;;65.32;8.15;;;;;;;33.34;31.51;99303.06;1626155;86;21493;-60
2022/08/22 11:34:08;;;;;;;88.55;9.88;;;;;;;33.29;31.47;99304.25;1606926;87;21547;-61
2022/08/22 11:36:52;;;;;;;71.07;10.50;;;;;;;33.34;31.40;99298.13;1623986;86;21084;-62
2022/08/22 11:39:56;;;;;;;67.70;8.30;;;;;;;33.48;31.20;99298.32;1596654;87;21576;-58
2022/08/22 11:43:10;;;;;;;85.65;10.80;;;;;;;33.54;31.70;99298.78;1613661;87;21549;-62
2022/08/22 11:45:44;;;;;;;83.10;9.33;;;;;;;33.69;30.24;99302.55;1614711;86;21073;-61
2022/08/22 11:48:22;;;;;;;72.22;9.48;;;;;;;33.83;30.35;99305.14;1622901;87;21579;-58
2022/08/22 11:51:22;;;;;;;74.27;9.58;;;;;;;33.90;29.80;99298.55;1620840;86;21554;-61
2022/08/22 11:53:56;;;;;;;79.50;10.13;;;;;;;33.99;29.78;99301.00;1622241;86;21794;-60
2022/08/22 11:56:28;;;;;;;78.92;9.98;;;;;;;34.09;30.27;99297.20;1623256;87;21880;-60
2022/08/22 11:59:05;;;;;;;104.70;12.88;;;;;;;34.20;28.96;99295.64;1617694;87;21616;-60
2022/08/22 12:01:47;;;;;;;78.22;10.40;;;;;;;34.16;28.16;99292.53;1594239;87;21414;-60
2022/08/22 12:04:36;;;;;;;98.72;11.97;;;;;;;34.13;27.92;99292.95;1594993;89;21604;-60
2022/08/22 12:07:19;;;;;;;108.00;11.90;;;;;;;34.17;27.44;99288.77;1608534;88;21746;-60
2022/08/22 12:10:00;;;;;;;90.38;11.40;;;;;;;34.22;28.42;99300.34;1606631;88;21449;-60
2022/08/22 12:13:05;;;;;;;115.88;14.10;;;;;;;34.27;28.05;99292.31;1609707;87;21509;-61
2022/08/22 12:15:50;;;;;;;101.33;11.73;;;;;;;34.39;28.06;99291.83;1577607;89;20985;-61
2022/08/22 12:18:41;;;;;;;106.63;12.60;;;;;;;34.41;27.63;99291.59;1583760;88;21623;-60
2022/08/22 12:21:19;;;;;;;106.72;11.60;;;;;;;34.48;27.66;99290.98;1637481;85;21573;-59
2022/08/22 12:24:14;;;;;;;87.88;12.53;;;;;;;34.60;26.99;99293.75;1644963;85;21036;-61
2022/08/22 12:26:56;;;;;;;90.45;11.83;;;;;;;34.74;27.22;99293.91;1634108;85;21114;-61
2022/08/22 12:29:34;;;;;;;85.67;12.93;;;;;;;34.82;26.86;99287.28;1638015;86;21559;-60
2022/08/22 12:32:19;;;;;;;110.97;12.20;;;;;;;34.89;26.57;99292.95;1642382;86;21427;-59
2022/08/22 12:35:18;;;;;;;96.00;12.07;;;;;;;34.90;26.88;99290.53;1642278;85;21857;-58
2022/08/22 12:38:15;;;;;;;105.17;13.55;;;;;;;34.91;27.03;99291.35;1637556;86;21454;-59
2022/08/22 12:41:01;;;;;;;100.30;12.17;;;;;;;34.89;27.36;99279.29;1639533;85;21586;-59
2022/08/22 12:43:39;;;;;;;97.25;11.73;;;;;;;34.96;27.65;99286.54;1644553;85;21962;-60
2022/08/22 12:46:26;;;;;;;85.30;12.90;;;;;;;35.04;27.10;99284.86;1637693;86;21623;-59
2022/08/22 12:49:00;;;;;;;;;;;;;;;35.22;26.68;99283.95;1639436;85;21792;-59
2022/08/22 12:51:52;;;;;;;99.90;11.20;;;;;;;35.27;26.37;99290.38;1635847;85;20517;-59
2022/08/22 12:54:52;;;;;;;100.55;12.00;;;;;;;35.35;26.70;99289.73;1639307;86;21552;-59
2022/08/22 12:57:24;;;;;;;91.50;12.10;;;;;;;35.38;26.20;99281.90;1635130;86;21513;-59
2022/08/22 13:00:17;;;;;;;86.65;11.30;;;;;;;35.33;25.95;99289.14;1653111;85;21092;-60
2022/08/22 13:02:44;;;;;;;104.20;12.82;;;;;;;35.39;26.18;99284.09;1653646;84;21517;-59